TimeEDT,TemperatureF,Dew PointF,Humidity,Sea Level PressureIn,VisibilityMPH,Wind Direction,Wind SpeedMPH,Gust SpeedMPH,PrecipitationIn,Events,Conditions,WindDirDegrees,DateUTC
12:15 AM,44.6,38.5,79,30.18,7.0,NE,11.5,17.3,N/A,,Overcast,50,2013-03-18 04:15:00
12:35 AM,44.2,39.2,82,30.18,10.0,NE,10.4,-,N/A,,Mostly Cloudy,40,2013-03-18 04:35:00
12:55 AM,43.5,39.7,87,30.17,4.0,NE,11.5,-,N/A,,Overcast,50,2013-03-18 04:55:00
1:15 AM,43.0,40.6,91,30.17,5.0,NE,9.2,-,N/A,,Overcast,50,2013-03-18 05:15:00
1:35 AM,42.8,41.0,93,30.17,5.0,NE,10.4,-,N/A,,Overcast,40,2013-03-18 05:35:00
1:55 AM,42.8,40.6,92,30.16,7.0,NE,12.7,17.3,N/A,,Overcast,40,2013-03-18 05:55:00
2:15 AM,42.8,41.0,93,30.17,7.0,NE,10.4,-,N/A,,Overcast,40,2013-03-18 06:15:00
2:35 AM,43.0,40.8,92,30.17,10.0,NE,10.4,-,N/A,,Overcast,50,2013-03-18 06:35:00
2:55 AM,43.2,40.6,91,30.16,10.0,NE,9.2,-,N/A,,Overcast,50,2013-03-18 06:55:00
3:15 AM,43.5,40.8,90,30.15,10.0,ENE,12.7,-,N/A,,Overcast,60,2013-03-18 07:15:00
3:35 AM,43.7,41.0,90,30.15,10.0,ENE,8.1,-,N/A,,Overcast,60,2013-03-18 07:35:00
3:55 AM,43.7,41.0,90,30.14,10.0,NE,10.4,-,N/A,,Overcast,40,2013-03-18 07:55:00
4:15 AM,43.7,41.4,91,30.14,10.0,NE,9.2,-,N/A,,Overcast,50,2013-03-18 08:15:00
4:35 AM,43.7,41.4,91,30.13,10.0,NNE,9.2,-,N/A,,Overcast,20,2013-03-18 08:35:00
4:55 AM,43.7,41.5,92,30.13,10.0,NE,10.4,-,N/A,,Overcast,40,2013-03-18 08:55:00
5:15 AM,43.5,41.4,92,30.14,10.0,NE,10.4,-,N/A,,Overcast,40,2013-03-18 09:15:00
5:35 AM,43.3,41.4,93,30.14,10.0,NE,9.2,18.4,N/A,,Overcast,40,2013-03-18 09:35:00
5:55 AM,43.3,41.4,93,30.13,10.0,NE,11.5,-,N/A,,Overcast,50,2013-03-18 09:55:00
6:15 AM,43.2,41.2,93,30.15,7.0,NNE,10.4,-,N/A,,Overcast,20,2013-03-18 10:15:00
6:35 AM,42.8,41.0,93,30.17,7.0,NNE,8.1,-,N/A,,Overcast,20,2013-03-18 10:35:00
6:55 AM,42.8,41.0,93,30.17,7.0,NNE,10.4,-,N/A,,Overcast,30,2013-03-18 10:55:00
6:56 AM,42.8,41.0,93,30.17,5.0,NNE,9.2,-,N/A,,Overcast,30,2013-03-18 10:56:00
7:56 AM,42.8,41.0,93,30.18,2.0,NNE,8.1,-,N/A,,Overcast,20,2013-03-18 11:56:00
8:56 AM,41.0,41.0,100,30.19,3.0,NNE,9.2,-,N/A,,Overcast,30,2013-03-18 12:56:00
9:09 AM,59.0,53.6,82,29.97,7.0,ESE,9.2,-,N/A,,Overcast,120,2013-03-18 13:09:00
9:56 AM,42.8,41.0,93,30.17,5.0,NNE,10.4,-,N/A,,Overcast,30,2013-03-18 13:56:00
10:56 AM,44.6,42.8,93,30.15,7.0,NE,9.2,-,N/A,,Overcast,40,2013-03-18 14:56:00
11:56 AM,46.4,42.8,87,30.12,7.0,ENE,9.2,-,N/A,,Overcast,60,2013-03-18 15:56:00
12:56 PM,48.2,44.6,87,30.12,7.0,East,4.6,-,N/A,,Overcast,80,2013-03-18 16:56:00
1:56 PM,53.6,46.4,77,30.07,10.0,ENE,3.5,-,N/A,,Overcast,60,2013-03-18 17:56:00
2:56 PM,55.4,46.4,72,30.04,10.0,NE,3.5,-,N/A,,Overcast,40,2013-03-18 18:56:00
3:56 PM,55.4,48.2,77,30.01,10.0,North,4.6,-,N/A,,Overcast,10,2013-03-18 19:56:00
4:56 PM,55.4,48.2,77,29.99,10.0,NE,5.8,-,N/A,,Mostly Cloudy,50,2013-03-18 20:56:00
5:56 PM,55.4,48.2,77,29.98,10.0,NNE,3.5,-,N/A,,Mostly Cloudy,30,2013-03-18 21:56:00
6:56 PM,55.4,48.2,77,29.96,10.0,NNE,4.6,-,N/A,,Overcast,30,2013-03-18 22:56:00
7:56 PM,53.6,48.2,82,29.96,10.0,North,4.6,-,N/A,,Overcast,360,2013-03-18 23:56:00
8:56 PM,51.8,48.2,88,29.95,10.0,North,9.2,-,N/A,,Overcast,360,2013-03-19 00:56:00
9:15 PM,51.3,47.7,87,29.95,10.0,North,5.8,-,N/A,,Overcast,360,2013-03-19 01:15:00
9:35 PM,50.9,47.8,89,29.96,10.0,North,3.5,-,N/A,,Overcast,350,2013-03-19 01:35:00
9:55 PM,50.9,48.2,90,29.94,7.0,NE,5.8,-,N/A,,Overcast,50,2013-03-19 01:55:00
10:15 PM,50.9,48.2,90,29.94,7.0,North,4.6,-,N/A,,Overcast,350,2013-03-19 02:15:00
10:35 PM,50.0,47.7,92,29.95,7.0,NNW,5.8,-,N/A,,Overcast,330,2013-03-19 02:35:00
10:55 PM,49.5,47.5,93,29.96,5.0,NNW,5.8,-,N/A,,Overcast,330,2013-03-19 02:55:00
11:15 PM,49.1,47.3,93,29.95,4.0,NNW,5.8,-,N/A,,Light Drizzle,340,2013-03-19 03:15:00
11:55 PM,48.2,46.8,95,29.93,5.0,North,4.6,-,N/A,,Overcast,360,2013-03-19 03:55:00